createdAt,value
2016-03-19T00:01:27.457Z,2.9
2016-03-19T00:03:27.962Z,2.88
2016-03-19T00:04:36.778Z,2.98
2016-03-19T00:05:27.874Z,2.9
2016-03-19T00:06:27.705Z,2.85
2016-03-19T00:07:27.769Z,2.9
2016-03-19T00:08:27.819Z,2.87
2016-03-19T00:09:27.978Z,2.85
2016-03-19T00:10:27.513Z,2.95
2016-03-19T00:11:27.499Z,2.9
2016-03-19T00:13:35.802Z,2.88
2016-03-19T00:14:27.694Z,2.91
2016-03-19T00:15:27.588Z,2.87
2016-03-19T00:16:24.638Z,2.96
2016-03-19T00:17:27.812Z,2.88
2016-03-19T00:18:27.644Z,2.93
2016-03-19T00:19:27.599Z,2.98
2016-03-19T00:20:27.883Z,2.91
2016-03-19T00:21:25.776Z,2.93
2016-03-19T00:22:27.904Z,2.95
2016-03-19T00:23:28.048Z,2.91
2016-03-19T00:24:27.863Z,2.85
2016-03-19T00:26:27.884Z,2.88
2016-03-19T00:27:27.449Z,2.87
2016-03-19T00:28:54.561Z,2.91
2016-03-19T00:30:17.957Z,2.91
2016-03-19T00:33:50.168Z,2.95
2016-03-19T00:35:14.609Z,2.88
2016-03-19T00:36:33.379Z,2.96
2016-03-19T00:37:57.194Z,2.9
2016-03-19T00:39:14.495Z,2.99
2016-03-19T00:40:34.515Z,2.88
2016-03-19T00:41:53.392Z,2.91
2016-03-19T00:43:15.583Z,2.91
2016-03-19T00:44:34.980Z,3.02
2016-03-19T00:45:57.295Z,3.01
2016-03-19T00:47:44.863Z,2.91
2016-03-19T00:49:32.352Z,2.9
2016-03-19T00:50:52.261Z,2.91
2016-03-19T00:52:31.001Z,2.95
2016-03-19T00:54:18.379Z,2.93
2016-03-19T00:55:46.259Z,2.98
2016-03-19T00:56:53.183Z,2.96
2016-03-19T00:58:17.530Z,2.98
2016-03-19T00:58:50.845Z,2.96
2016-03-19T00:59:44.098Z,2.96
2016-03-19T01:01:08.601Z,2.98
2016-03-19T01:02:09.478Z,2.93
2016-03-19T01:03:09.465Z,2.99
2016-03-19T01:04:09.655Z,2.88
2016-03-19T01:05:09.924Z,2.98
2016-03-19T01:06:17.801Z,2.87
2016-03-19T01:07:09.539Z,2.98
2016-03-19T01:08:09.620Z,3.01
2016-03-19T01:09:09.738Z,2.99
2016-03-19T01:10:08.621Z,2.99
2016-03-19T01:11:39.483Z,2.93
2016-03-19T01:12:08.249Z,2.95
2016-03-19T01:13:09.804Z,2.85
2016-03-19T01:14:08.756Z,2.88
2016-03-19T01:15:08.520Z,2.88
2016-03-19T01:16:08.426Z,2.9
2016-03-19T01:17:09.316Z,2.96
2016-03-19T01:19:17.472Z,3.02
2016-03-19T01:20:09.521Z,2.93
2016-03-19T01:21:09.319Z,2.95
2016-03-19T01:22:09.571Z,3.05
2016-03-19T01:23:09.042Z,2.95
2016-03-19T01:24:08.466Z,2.95
2016-03-19T01:26:09.955Z,3.05
2016-03-19T01:27:09.176Z,2.9
2016-03-19T01:28:09.365Z,3.01
2016-03-19T01:29:09.603Z,2.99
2016-03-19T01:30:10.356Z,3.01
2016-03-19T01:32:09.517Z,2.99
2016-03-19T01:33:09.331Z,2.9
2016-03-19T01:35:08.197Z,2.95
2016-03-19T01:36:08.965Z,2.96
2016-03-19T01:37:07.718Z,3.02
2016-03-19T01:38:08.533Z,2.96
2016-03-19T01:40:09.913Z,2.98
2016-03-19T01:41:09.166Z,2.93
2016-03-19T01:42:08.544Z,2.93
2016-03-19T01:43:09.858Z,2.88
2016-03-19T01:44:09.393Z,2.96
2016-03-19T01:45:08.879Z,3.02
2016-03-19T01:46:17.711Z,2.93
2016-03-19T01:47:08.073Z,2.99
2016-03-19T01:49:09.047Z,3.01
2016-03-19T01:52:08.164Z,3.02
2016-03-19T01:53:10.074Z,3.02
2016-03-19T01:54:10.701Z,3.08
2016-03-19T01:55:18.720Z,3.05
2016-03-19T01:57:09.178Z,3.05
2016-03-19T01:58:09.384Z,3.09
2016-03-19T01:59:09.636Z,3.02
2016-03-19T02:01:08.970Z,2.93
2016-03-19T02:02:08.692Z,3.08
2016-03-19T02:03:08.772Z,2.96
2016-03-19T02:04:16.634Z,2.96
2016-03-19T02:05:07.840Z,2.99
2016-03-19T02:06:08.859Z,2.95
2016-03-19T02:07:07.908Z,2.91
2016-03-19T02:08:09.316Z,3.02
2016-03-19T02:09:08.398Z,2.96
2016-03-19T02:10:07.775Z,2.98
2016-03-19T02:11:08.606Z,2.83
2016-03-19T02:12:08.750Z,2.98
2016-03-19T02:14:17.692Z,2.96
2016-03-19T02:15:07.866Z,2.9
2016-03-19T02:16:08.808Z,2.98
2016-03-19T02:17:09.060Z,2.96
2016-03-19T02:19:08.221Z,3.01
2016-03-19T02:21:07.914Z,2.84
2016-03-19T02:22:07.651Z,2.93
2016-03-19T02:23:08.810Z,2.87
2016-03-19T02:24:07.563Z,2.87
2016-03-19T02:26:17.584Z,2.99
2016-03-19T02:27:08.618Z,2.9
2016-03-19T02:29:07.701Z,2.95
2016-03-19T02:30:08.797Z,2.91
2016-03-19T02:31:07.612Z,2.99
2016-03-19T02:32:08.803Z,2.98
2016-03-19T02:36:07.501Z,2.85
2016-03-19T02:39:16.650Z,2.93
2016-03-19T02:40:07.434Z,2.88
2016-03-19T02:41:08.530Z,2.91
2016-03-19T02:42:07.330Z,2.88
2016-03-19T02:43:08.442Z,2.99
2016-03-19T02:44:07.398Z,2.99
2016-03-19T02:45:08.385Z,2.9
2016-03-19T02:46:15.747Z,2.87
2016-03-19T02:47:15.735Z,2.88
2016-03-19T02:48:07.627Z,2.93
2016-03-19T02:50:16.368Z,2.88
2016-03-19T02:51:08.449Z,2.85
2016-03-19T02:52:07.373Z,2.88
2016-03-19T02:53:07.500Z,2.9
2016-03-19T02:54:15.706Z,2.87
2016-03-19T02:55:07.381Z,2.87
2016-03-19T02:56:49.464Z,2.78
2016-03-19T02:59:01.845Z,2.78
2016-03-19T03:00:02.081Z,2.72
2016-03-19T03:01:10.726Z,2.7
2016-03-19T03:02:01.993Z,2.73
2016-03-19T03:03:02.028Z,2.76
2016-03-19T03:04:01.936Z,2.73
2016-03-19T03:05:01.939Z,2.77
2016-03-19T03:06:01.989Z,2.77
2016-03-19T03:07:02.178Z,2.65
2016-03-19T03:09:10.356Z,2.63
2016-03-19T03:10:01.999Z,2.63
2016-03-19T03:12:02.958Z,2.63
2016-03-19T03:13:01.742Z,2.6
2016-03-19T03:14:05.182Z,2.55
2016-03-19T03:18:13.755Z,2.58
2016-03-19T03:19:01.663Z,2.54
2016-03-19T03:20:01.745Z,2.6
2016-03-19T03:21:10.201Z,2.51
2016-03-19T03:22:02.718Z,2.52
2016-03-19T03:23:11.752Z,2.65
2016-03-19T03:25:05.696Z,2.55
2016-03-19T03:26:12.776Z,2.55
2016-03-19T03:28:04.516Z,2.59
2016-03-19T03:29:16.143Z,2.54
2016-03-19T03:30:04.600Z,2.62
2016-03-19T03:31:04.524Z,2.54
2016-03-19T03:32:04.871Z,2.54
2016-03-19T03:33:04.452Z,2.6
2016-03-19T03:34:05.032Z,2.55
2016-03-19T03:35:04.395Z,2.59
2016-03-19T03:36:04.287Z,2.55
2016-03-19T03:37:04.790Z,2.59
2016-03-19T03:38:04.840Z,2.51
2016-03-19T03:39:12.671Z,2.59
2016-03-19T03:41:04.583Z,2.54
2016-03-19T03:42:04.695Z,2.52
2016-03-19T03:43:04.557Z,2.55
2016-03-19T03:44:04.169Z,2.51
2016-03-19T03:45:04.483Z,2.55
2016-03-19T03:46:04.408Z,2.59
2016-03-19T03:47:04.224Z,2.55
2016-03-19T03:48:04.616Z,2.54
2016-03-19T03:49:04.682Z,2.58
2016-03-19T03:50:04.668Z,2.52
2016-03-19T03:51:04.078Z,2.55
2016-03-19T03:52:04.596Z,2.6
2016-03-19T03:53:04.818Z,2.6
2016-03-19T03:54:01.586Z,2.54
2016-03-19T03:55:04.370Z,2.58
2016-03-19T03:58:01.379Z,2.52
2016-03-19T03:59:14.256Z,2.55
2016-03-19T04:00:04.476Z,2.6
2016-03-19T04:02:04.545Z,2.55
2016-03-19T04:03:04.314Z,2.62
2016-03-19T04:04:04.503Z,2.6
2016-03-19T04:05:04.226Z,2.54
2016-03-19T04:06:04.478Z,2.63
2016-03-19T04:07:04.870Z,2.58
2016-03-19T04:08:04.686Z,2.65
2016-03-19T04:09:04.970Z,2.58
2016-03-19T04:10:05.161Z,2.54
2016-03-19T04:11:04.366Z,2.6
2016-03-19T04:14:04.078Z,2.69
2016-03-19T04:16:02.536Z,2.62
2016-03-19T04:17:03.836Z,2.63
2016-03-19T10:37:31.851Z,4.11
2016-03-19T10:38:32.354Z,4.11
2016-03-19T10:39:32.091Z,4.1
2016-03-19T10:40:32.609Z,4.2
2016-03-19T10:41:32.049Z,4.15
2016-03-19T10:42:29.205Z,4.3
2016-03-19T10:43:30.039Z,4.33
2016-03-19T10:44:32.089Z,4.28
2016-03-19T10:45:32.639Z,4.33
2016-03-19T10:46:32.407Z,4.36
2016-03-19T10:47:32.035Z,4.46
2016-03-19T10:48:31.130Z,4.44
2016-03-19T10:49:32.368Z,4.54
2016-03-19T10:50:32.199Z,4.5
2016-03-19T10:51:32.357Z,4.53
2016-03-19T10:52:32.579Z,4.48
2016-03-19T10:53:32.051Z,4.48
2016-03-19T10:54:32.616Z,4.5
2016-03-19T10:55:31.963Z,4.58
2016-03-19T10:56:32.293Z,4.48
2016-03-19T10:57:29.090Z,4.51
2016-03-19T10:59:31.723Z,4.57
2016-03-19T11:00:40.757Z,4.58
2016-03-19T11:01:32.634Z,4.61
2016-03-19T11:02:31.918Z,4.61
2016-03-19T11:03:31.703Z,4.61
2016-03-19T11:04:31.611Z,4.65
2016-03-19T11:05:32.426Z,4.64
2016-03-19T11:06:32.164Z,4.56
2016-03-19T11:07:31.884Z,4.51
2016-03-19T11:08:32.528Z,4.48
2016-03-19T11:09:31.828Z,4.47
2016-03-19T11:10:31.550Z,4.46
2016-03-19T11:11:40.302Z,4.39
2016-03-19T11:13:31.495Z,4.3
2016-03-19T11:14:32.482Z,4.29
2016-03-19T11:15:31.547Z,4.3
2016-03-19T11:16:31.534Z,4.3
2016-03-19T11:17:31.833Z,4.29
2016-03-19T11:18:31.758Z,4.24
2016-03-19T11:19:31.776Z,4.35
2016-03-19T11:20:31.467Z,4.3
2016-03-19T11:21:31.751Z,4.2
2016-03-19T11:22:31.832Z,4.3
2016-03-19T11:23:29.644Z,4.29
2016-03-19T11:24:32.102Z,4.22
2016-03-19T11:25:31.949Z,4.32
2016-03-19T11:26:40.607Z,4.26
2016-03-19T11:27:31.674Z,4.28
2016-03-19T11:28:31.832Z,4.15
2016-03-19T11:31:31.496Z,4.2
2016-03-19T11:32:31.670Z,4.21
2016-03-19T11:33:31.267Z,4.21
2016-03-19T11:34:31.270Z,4.17
2016-03-19T11:35:31.289Z,4.3
2016-03-19T11:36:31.276Z,4.18
2016-03-19T11:37:31.607Z,4.26
2016-03-19T11:38:31.890Z,4.17
2016-03-19T11:39:31.675Z,4.24
2016-03-19T11:40:32.083Z,4.24
2016-03-19T11:41:31.273Z,4.28
2016-03-19T11:42:32.166Z,4.33
2016-03-19T11:43:31.763Z,4.3
2016-03-19T11:44:31.546Z,4.28
2016-03-19T11:45:31.846Z,4.26
2016-03-19T11:46:31.522Z,4.36
2016-03-19T11:47:31.321Z,4.32
2016-03-19T11:48:42.027Z,4.4
2016-03-19T11:49:32.030Z,4.47
2016-03-19T11:50:31.094Z,4.54
2016-03-19T11:51:31.284Z,4.48
2016-03-19T11:52:31.194Z,4.51
2016-03-19T11:53:31.524Z,4.47
2016-03-19T11:54:31.480Z,4.44
2016-03-19T11:55:30.873Z,4.46
2016-03-19T11:56:30.938Z,4.32
2016-03-19T11:57:31.301Z,4.42
2016-03-19T11:58:30.990Z,4.33
2016-03-19T11:59:31.009Z,4.33
2016-03-19T12:00:30.918Z,4.42
2016-03-19T12:01:31.264Z,4.44
2016-03-19T12:02:31.018Z,4.48
2016-03-19T12:03:30.910Z,4.47
2016-03-19T12:04:31.445Z,4.48
2016-03-19T12:05:31.165Z,4.51
2016-03-19T12:06:31.340Z,4.47
2016-03-19T12:07:31.281Z,4.51
2016-03-19T12:08:30.767Z,4.47
2016-03-19T12:09:31.270Z,4.51
2016-03-19T12:10:31.226Z,4.48
2016-03-19T12:11:32.573Z,4.53
2016-03-19T12:12:30.982Z,4.51
2016-03-19T12:13:31.516Z,4.54
2016-03-19T12:14:30.628Z,4.54
2016-03-19T12:15:32.708Z,4.53
2016-03-19T12:16:30.458Z,4.5
